Blidosund — SDKG — position and weather

sailwx.info

Track history (hours):
 
Tides and Currents Weather Stations Pressure Air Temp Water Temp Dewpoint Dewpoint Depression Visibility Wind Speed Wind Dir Waves Ship Positions

Blidosund

Last reported at 2016-Jul-29 15:13 UTC. Time now 2016-Jul-30 03:33 UTC.
Position N 59°20' E 018°11'.

Length 35 m; draft 3 m.

Type: Passenger vessel. MMSI: 265522680.

Date/timePositionNaut miles runAvg speedWind from/ knotsBaromVisibWave heightAir tempDewpointWater temp
2016-Jul-29 15:13N 59°20' E 018°11'4 1.2
2016-Jul-29 12:19N 59°20' E 018°05'0 0.0
2016-Jul-29 10:33N 59°20' E 018°05'0 0.0
2016-Jul-29 09:26N 59°20' E 018°05'0 0.0
2016-Jul-29 08:21N 59°20' E 018°05'0 0.0
2016-Jul-29 05:33N 59°20' E 018°05'0 0.0
2016-Jul-28 20:26N 59°20' E 018°05'3 3.8
2016-Jul-28 19:33N 59°20' E 018°11'1 0.3
2016-Jul-28 17:14N 59°20' E 018°12'4 6.0
2016-Jul-28 16:34N 59°20' E 018°05'0 0.0
2016-Jul-28 15:33N 59°20' E 018°05'0 0.0
2016-Jul-28 14:31N 59°20' E 018°05'0 0.0
2016-Jul-28 13:33N 59°20' E 018°05'0 0.0
2016-Jul-28 12:29N 59°20' E 018°05'0 0.0
2016-Jul-28 11:17N 59°20' E 018°05'0 0.0
2016-Jul-28 10:33N 59°20' E 018°05'0 0.0
2016-Jul-28 09:18N 59°20' E 018°05'0 0.0
2016-Jul-28 08:33N 59°20' E 018°05'0 0.0
2016-Jul-28 07:33N 59°20' E 018°05'0 0.0
2016-Jul-28 06:32N 59°20' E 018°05'0 0.0
2016-Jul-28 05:31N 59°20' E 018°05'0 0.0
2016-Jul-28 04:33N 59°20' E 018°05'0 0.0
2016-Jul-28 03:33N 59°20' E 018°05'0 0.0
2016-Jul-28 02:33N 59°20' E 018°05'0 0.0
2016-Jul-28 01:33N 59°20' E 018°05'0 0.0
2016-Jul-28 00:33N 59°20' E 018°05'0 0.0
2016-Jul-27 23:33N 59°20' E 018°05'0 0.0
2016-Jul-27 22:33N 59°20' E 018°05'0 0.0
2016-Jul-27 21:33N 59°20' E 018°05'0 0.0
2016-Jul-27 20:33N 59°20' E 018°05'3 3.4
2016-Jul-27 19:33N 59°20' E 018°11'1 0.3
2016-Jul-27 17:15N 59°20' E 018°12'4 5.8
2016-Jul-27 16:34N 59°20' E 018°05'0 0.0
2016-Jul-27 15:32N 59°20' E 018°05'0 0.0
2016-Jul-27 14:18N 59°20' E 018°05'0 0.0
2016-Jul-27 13:29N 59°20' E 018°05'0 0.0
2016-Jul-27 06:26N 59°20' E 018°05'0 0.0
2016-Jul-27 05:34N 59°20' E 018°05'0 0.0
2016-Jul-27 04:33N 59°20' E 018°05'0 0.0
2016-Jul-27 03:18N 59°20' E 018°05'0 0.0
2016-Jul-27 02:17N 59°20' E 018°05'0 0.0
2016-Jul-27 01:33N 59°20' E 018°05'0 0.0
2016-Jul-26 20:33N 59°20' E 018°05'3 3.4
2016-Jul-26 19:33N 59°20' E 018°11'1 0.3
2016-Jul-26 17:17N 59°20' E 018°12'4 5.6
2016-Jul-26 16:33N 59°20' E 018°05'0 0.0
2016-Jul-26 15:27N 59°20' E 018°05'0 0.0
2016-Jul-26 14:33N 59°20' E 018°05'0 0.0
2016-Jul-26 13:33N 59°20' E 018°05'0 0.0
2016-Jul-26 12:33N 59°20' E 018°05'0 0.0
2016-Jul-26 11:33N 59°20' E 018°05'0 0.0
2016-Jul-26 10:33N 59°20' E 018°05'0 0.0
2016-Jul-26 09:33N 59°20' E 018°05'0 0.0
2016-Jul-26 08:33N 59°20' E 018°05'0 0.0
2016-Jul-26 06:34N 59°20' E 018°05'0 0.0
2016-Jul-26 05:33N 59°20' E 018°05'0 0.0
2016-Jul-25 23:06N 59°20' E 018°05'0 0.0
2016-Jul-25 20:19N 59°20' E 018°05'4 1.4
2016-Jul-25 17:24N 59°20' E 018°12'4 2.2
2016-Jul-25 15:33N 59°20' E 018°05'0 0.0
2016-Jul-25 14:33N 59°20' E 018°05'0 0.0
2016-Jul-25 13:28N 59°20' E 018°05'0 0.0
2016-Jul-25 12:30N 59°20' E 018°05'0 0.0
2016-Jul-25 11:29N 59°20' E 018°05'0 0.0
2016-Jul-25 10:22N 59°20' E 018°05'0 0.0
2016-Jul-25 08:25N 59°20' E 018°05'0 0.0
2016-Jul-24 19:29N 59°20' E 018°05'0 0.0
2016-Jul-24 18:14N 59°20' E 018°05'  
2016-Jul-22 08:05N 59°20' E 018°05'0 0.0
2016-Jul-22 07:32N 59°20' E 018°05'0 0.0
2016-Jul-22 04:33N 59°20' E 018°05'0 0.0
2016-Jul-22 03:33N 59°20' E 018°05'0 0.0
2016-Jul-22 02:33N 59°20' E 018°05'0 0.0
2016-Jul-22 01:30N 59°20' E 018°05'0 0.0
2016-Jul-21 20:33N 59°20' E 018°05'1 0.3
2016-Jul-21 17:06N 59°19' E 018°06'1 2.1
2016-Jul-21 16:33N 59°20' E 018°05'0 0.0
2016-Jul-21 13:22N 59°20' E 018°05'0 0.0
2016-Jul-21 12:32N 59°20' E 018°05'0 0.0
2016-Jul-21 11:30N 59°20' E 018°05'0 0.0
2016-Jul-21 10:33N 59°20' E 018°05'0 0.0
2016-Jul-21 09:33N 59°20' E 018°05'0 0.0
2016-Jul-21 08:33N 59°20' E 018°05'0 0.0
2016-Jul-21 07:24N 59°20' E 018°05'0 0.0
2016-Jul-21 06:33N 59°20' E 018°05'0 0.0
2016-Jul-21 05:29N 59°20' E 018°05'0 0.0
2016-Jul-21 04:30N 59°20' E 018°05'0 0.0
2016-Jul-21 03:06N 59°20' E 018°05'0 0.0
2016-Jul-21 02:33N 59°20' E 018°05'0 0.0
2016-Jul-21 01:12N 59°20' E 018°05'0 0.0
2016-Jul-21 00:32N 59°20' E 018°05'0 0.0
2016-Jul-20 23:28N 59°20' E 018°05'0 0.0
2016-Jul-20 22:34N 59°20' E 018°04'0 0.0
2016-Jul-20 21:33N 59°20' E 018°05'0 0.0
2016-Jul-20 20:34N 59°20' E 018°05'1 1.1
2016-Jul-20 19:23N 59°19' E 018°07'3 4.0
2016-Jul-20 18:33N 59°19' E 018°00'1 1.0
2016-Jul-20 17:33N 59°19' E 018°02'1 1.3
2016-Jul-20 16:33N 59°20' E 018°05'0 0.0
2016-Jul-20 15:33N 59°20' E 018°05'0 0.0
2016-Jul-20 14:34N 59°20' E 018°05'0 0.0
2016-Jul-20 13:32N 59°20' E 018°05'0 0.0
2016-Jul-20 12:34N 59°20' E 018°05'0 0.0
2016-Jul-20 11:31N 59°20' E 018°05'0 0.0
2016-Jul-20 10:14N 59°20' E 018°05'0 0.0
2016-Jul-20 09:33N 59°20' E 018°05'0 0.0
2016-Jul-20 08:33N 59°20' E 018°05'0 0.0
2016-Jul-20 07:33N 59°20' E 018°05'0 0.0
2016-Jul-20 06:33N 59°20' E 018°05'0 0.0
2016-Jul-20 05:33N 59°20' E 018°05'0 0.0
2016-Jul-20 04:33N 59°20' E 018°05'0 0.0
2016-Jul-20 03:33N 59°20' E 018°05'0 0.0
2016-Jul-20 02:32N 59°20' E 018°05'0 0.0
2016-Jul-20 01:33N 59°20' E 018°05'0 0.0
2016-Jul-20 00:33N 59°20' E 018°05'0 0.0
2016-Jul-19 23:32N 59°20' E 018°05'0 0.0
2016-Jul-19 22:34N 59°20' E 018°05'0 0.0
2016-Jul-19 21:33N 59°20' E 018°05'0 0.0
2016-Jul-19 20:34N 59°20' E 018°05'4 1.3
2016-Jul-19 17:23N 59°20' E 018°12'4 4.9
2016-Jul-19 16:33N 59°20' E 018°05'0 0.0
2016-Jul-19 15:26N 59°20' E 018°05'  
Track history (hours):
 
Tides and Currents Weather Stations Pressure Air Temp Water Temp Dewpoint Dewpoint Depression Visibility Wind Speed Wind Dir Waves Ship Positions

Blidosund

Last reported at 2016-Jul-29 15:13 UTC. Time now 2016-Jul-30 03:33 UTC.
Position N 59°20' E 018°11'.

Length 35 m; draft 3 m.

Type: Passenger vessel. MMSI: 265522680.

Date/timePositionNaut miles runAvg speedWind from/ knotsBaromVisibWave heightAir tempDewpointWater temp
2016-Jul-29 15:13N 59°20' E 018°11'4 1.2
2016-Jul-29 12:19N 59°20' E 018°05'0 0.0
2016-Jul-29 10:33N 59°20' E 018°05'0 0.0
2016-Jul-29 09:26N 59°20' E 018°05'0 0.0
2016-Jul-29 08:21N 59°20' E 018°05'0 0.0
2016-Jul-29 05:33N 59°20' E 018°05'0 0.0
2016-Jul-28 20:26N 59°20' E 018°05'3 3.8
2016-Jul-28 19:33N 59°20' E 018°11'1 0.3
2016-Jul-28 17:14N 59°20' E 018°12'4 6.0
2016-Jul-28 16:34N 59°20' E 018°05'0 0.0
2016-Jul-28 15:33N 59°20' E 018°05'0 0.0
2016-Jul-28 14:31N 59°20' E 018°05'0 0.0
2016-Jul-28 13:33N 59°20' E 018°05'0 0.0
2016-Jul-28 12:29N 59°20' E 018°05'0 0.0
2016-Jul-28 11:17N 59°20' E 018°05'0 0.0
2016-Jul-28 10:33N 59°20' E 018°05'0 0.0
2016-Jul-28 09:18N 59°20' E 018°05'0 0.0
2016-Jul-28 08:33N 59°20' E 018°05'0 0.0
2016-Jul-28 07:33N 59°20' E 018°05'0 0.0
2016-Jul-28 06:32N 59°20' E 018°05'0 0.0
2016-Jul-28 05:31N 59°20' E 018°05'0 0.0
2016-Jul-28 04:33N 59°20' E 018°05'0 0.0
2016-Jul-28 03:33N 59°20' E 018°05'0 0.0
2016-Jul-28 02:33N 59°20' E 018°05'0 0.0
2016-Jul-28 01:33N 59°20' E 018°05'0 0.0
2016-Jul-28 00:33N 59°20' E 018°05'0 0.0
2016-Jul-27 23:33N 59°20' E 018°05'0 0.0
2016-Jul-27 22:33N 59°20' E 018°05'0 0.0
2016-Jul-27 21:33N 59°20' E 018°05'0 0.0
2016-Jul-27 20:33N 59°20' E 018°05'3 3.4
2016-Jul-27 19:33N 59°20' E 018°11'1 0.3
2016-Jul-27 17:15N 59°20' E 018°12'4 5.8
2016-Jul-27 16:34N 59°20' E 018°05'0 0.0
2016-Jul-27 15:32N 59°20' E 018°05'0 0.0
2016-Jul-27 14:18N 59°20' E 018°05'0 0.0
2016-Jul-27 13:29N 59°20' E 018°05'0 0.0
2016-Jul-27 06:26N 59°20' E 018°05'0 0.0
2016-Jul-27 05:34N 59°20' E 018°05'0 0.0
2016-Jul-27 04:33N 59°20' E 018°05'0 0.0
2016-Jul-27 03:18N 59°20' E 018°05'0 0.0
2016-Jul-27 02:17N 59°20' E 018°05'0 0.0
2016-Jul-27 01:33N 59°20' E 018°05'0 0.0
2016-Jul-26 20:33N 59°20' E 018°05'3 3.4
2016-Jul-26 19:33N 59°20' E 018°11'1 0.3
2016-Jul-26 17:17N 59°20' E 018°12'4 5.6
2016-Jul-26 16:33N 59°20' E 018°05'0 0.0
2016-Jul-26 15:27N 59°20' E 018°05'0 0.0
2016-Jul-26 14:33N 59°20' E 018°05'0 0.0
2016-Jul-26 13:33N 59°20' E 018°05'0 0.0
2016-Jul-26 12:33N 59°20' E 018°05'0 0.0
2016-Jul-26 11:33N 59°20' E 018°05'0 0.0
2016-Jul-26 10:33N 59°20' E 018°05'0 0.0
2016-Jul-26 09:33N 59°20' E 018°05'0 0.0
2016-Jul-26 08:33N 59°20' E 018°05'0 0.0
2016-Jul-26 06:34N 59°20' E 018°05'0 0.0
2016-Jul-26 05:33N 59°20' E 018°05'0 0.0
2016-Jul-25 23:06N 59°20' E 018°05'0 0.0
2016-Jul-25 20:19N 59°20' E 018°05'4 1.4
2016-Jul-25 17:24N 59°20' E 018°12'4 2.2
2016-Jul-25 15:33N 59°20' E 018°05'0 0.0
2016-Jul-25 14:33N 59°20' E 018°05'0 0.0
2016-Jul-25 13:28N 59°20' E 018°05'0 0.0
2016-Jul-25 12:30N 59°20' E 018°05'0 0.0
2016-Jul-25 11:29N 59°20' E 018°05'0 0.0
2016-Jul-25 10:22N 59°20' E 018°05'0 0.0
2016-Jul-25 08:25N 59°20' E 018°05'0 0.0
2016-Jul-24 19:29N 59°20' E 018°05'0 0.0
2016-Jul-24 18:14N 59°20' E 018°05'  
2016-Jul-22 08:05N 59°20' E 018°05'0 0.0
2016-Jul-22 07:32N 59°20' E 018°05'0 0.0
2016-Jul-22 04:33N 59°20' E 018°05'0 0.0
2016-Jul-22 03:33N 59°20' E 018°05'0 0.0
2016-Jul-22 02:33N 59°20' E 018°05'0 0.0
2016-Jul-22 01:30N 59°20' E 018°05'0 0.0
2016-Jul-21 20:33N 59°20' E 018°05'1 0.3
2016-Jul-21 17:06N 59°19' E 018°06'1 2.1
2016-Jul-21 16:33N 59°20' E 018°05'0 0.0
2016-Jul-21 13:22N 59°20' E 018°05'0 0.0
2016-Jul-21 12:32N 59°20' E 018°05'0 0.0
2016-Jul-21 11:30N 59°20' E 018°05'0 0.0
2016-Jul-21 10:33N 59°20' E 018°05'0 0.0
2016-Jul-21 09:33N 59°20' E 018°05'0 0.0
2016-Jul-21 08:33N 59°20' E 018°05'0 0.0
2016-Jul-21 07:24N 59°20' E 018°05'0 0.0
2016-Jul-21 06:33N 59°20' E 018°05'0 0.0
2016-Jul-21 05:29N 59°20' E 018°05'0 0.0
2016-Jul-21 04:30N 59°20' E 018°05'0 0.0
2016-Jul-21 03:06N 59°20' E 018°05'0 0.0
2016-Jul-21 02:33N 59°20' E 018°05'0 0.0
2016-Jul-21 01:12N 59°20' E 018°05'0 0.0
2016-Jul-21 00:32N 59°20' E 018°05'0 0.0
2016-Jul-20 23:28N 59°20' E 018°05'0 0.0
2016-Jul-20 22:34N 59°20' E 018°04'0 0.0
2016-Jul-20 21:33N 59°20' E 018°05'0 0.0
2016-Jul-20 20:34N 59°20' E 018°05'1 1.1
2016-Jul-20 19:23N 59°19' E 018°07'3 4.0
2016-Jul-20 18:33N 59°19' E 018°00'1 1.0
2016-Jul-20 17:33N 59°19' E 018°02'1 1.3
2016-Jul-20 16:33N 59°20' E 018°05'0 0.0
2016-Jul-20 15:33N 59°20' E 018°05'0 0.0
2016-Jul-20 14:34N 59°20' E 018°05'0 0.0
2016-Jul-20 13:32N 59°20' E 018°05'0 0.0
2016-Jul-20 12:34N 59°20' E 018°05'0 0.0
2016-Jul-20 11:31N 59°20' E 018°05'0 0.0
2016-Jul-20 10:14N 59°20' E 018°05'0 0.0
2016-Jul-20 09:33N 59°20' E 018°05'0 0.0
2016-Jul-20 08:33N 59°20' E 018°05'0 0.0
2016-Jul-20 07:33N 59°20' E 018°05'0 0.0
2016-Jul-20 06:33N 59°20' E 018°05'0 0.0
2016-Jul-20 05:33N 59°20' E 018°05'0 0.0
2016-Jul-20 04:33N 59°20' E 018°05'0 0.0
2016-Jul-20 03:33N 59°20' E 018°05'0 0.0
2016-Jul-20 02:32N 59°20' E 018°05'0 0.0
2016-Jul-20 01:33N 59°20' E 018°05'0 0.0
2016-Jul-20 00:33N 59°20' E 018°05'0 0.0
2016-Jul-19 23:32N 59°20' E 018°05'0 0.0
2016-Jul-19 22:34N 59°20' E 018°05'0 0.0
2016-Jul-19 21:33N 59°20' E 018°05'0 0.0
2016-Jul-19 20:34N 59°20' E 018°05'4 1.3
2016-Jul-19 17:23N 59°20' E 018°12'4 4.9
2016-Jul-19 16:33N 59°20' E 018°05'0 0.0
2016-Jul-19 15:26N 59°20' E 018°05'  

Dump ship's entire track history